Time,TemperatureF,DewpointF,PressureIn,WindDirection,WindDirectionDegrees,WindSpeedMPH,WindSpeedGustMPH,Humidity,HourlyPrecipIn,Conditions,Clouds,dailyrainin,SoftwareType,DateUTC
2013-01-02 00:00:00,23.2,14.2,29.85,WSW,248,0.0,0.0,68,0.00,RA,FEW,0.00,WeatherDisplay:10.37,2013-01-02 05:00:00,
2013-01-02 00:03:00,23.0,14.3,29.85,WSW,248,0.0,0.0,69,0.00,RA,FEW,0.00,WeatherDisplay:10.37,2013-01-02 05:03:00,
2013-01-02 00:08:00,23.0,14.0,29.85,NW,315,0.0,0.0,68,0.00,RA,FEW,0.00,WeatherDisplay:10.37,2013-01-02 05:08:00,
2013-01-02 00:13:00,22.8,14.2,29.85,WNW,292,0.5,0.5,69,0.00,CLR,FEW,0.00,WeatherDisplay:10.37,2013-01-02 05:13:00,
2013-01-02 00:18:00,22.8,14.2,29.85,WNW,292,0.5,1.1,69,0.00,CLR,FEW,0.00,WeatherDisplay:10.37,2013-01-02 05:18:00,
2013-01-02 00:23:00,22.6,14.0,29.85,NW,315,0.9,2.3,69,0.00,CLR,FEW,0.00,WeatherDisplay:10.37,2013-01-02 05:23:00,
2013-01-02 00:28:00,22.8,14.2,29.85,NW,315,0.9,1.1,69,0.00,CLR,FEW,0.00,WeatherDisplay:10.37,2013-01-02 05:28:00,
2013-01-02 00:33:00,22.8,14.2,29.85,NW,315,0.5,1.1,69,0.00,CLR,FEW,0.00,WeatherDisplay:10.37,2013-01-02 05:33:00,
2013-01-02 00:38:00,22.6,14.0,29.85,NW,315,0.7,1.1,69,0.00,CLR,FEW,0.00,WeatherDisplay:10.37,2013-01-02 05:38:00,
2013-01-02 00:43:00,22.6,14.0,29.85,NW,315,0.5,2.3,69,0.00,CLR,FEW,0.00,WeatherDisplay:10.37,2013-01-02 05:43:00,
2013-01-02 00:48:00,22.6,14.0,29.85,NW,315,0.0,0.0,69,0.00,CLR,FEW,0.00,WeatherDisplay:10.37,2013-01-02 05:48:00,
2013-01-02 00:53:00,22.5,13.8,29.85,NW,315,0.0,0.0,69,0.00,CLR,FEW,0.00,WeatherDisplay:10.37,2013-01-02 05:53:00,
2013-01-02 00:58:00,22.3,14.0,29.85,NW,315,0.5,1.1,70,0.00,CLR,FEW,0.00,WeatherDisplay:10.37,2013-01-02 05:58:00,
2013-01-02 01:03:00,22.3,13.6,29.85,NW,315,0.0,0.0,69,0.00,CLR,FEW,0.00,WeatherDisplay:10.37,2013-01-02 06:03:00,
2013-01-02 01:08:00,22.1,13.5,29.85,NW,315,0.0,0.0,69,0.00,CLR,FEW,0.00,WeatherDisplay:10.37,2013-01-02 06:08:00,
2013-01-02 01:13:00,21.9,13.3,29.85,NW,315,0.2,0.2,69,0.00,CLR,FEW,0.00,WeatherDisplay:10.37,2013-01-02 06:13:00,
2013-01-02 01:18:00,21.7,13.5,29.85,NW,315,0.0,0.0,70,0.00,CLR,FEW,0.00,WeatherDisplay:10.37,2013-01-02 06:18:00,
2013-01-02 01:23:00,21.6,13.3,29.85,WSW,248,0.0,1.1,70,0.00,CLR,FEW,0.00,WeatherDisplay:10.37,2013-01-02 06:23:00,
2013-01-02 01:28:00,21.6,13.3,29.85,West,270,0.0,0.0,70,0.00,CLR,FEW,0.00,WeatherDisplay:10.37,2013-01-02 06:28:00,
2013-01-02 01:33:00,21.4,12.8,29.86,NW,315,0.2,0.2,69,0.00,CLR,FEW,0.00,WeatherDisplay:10.37,2013-01-02 06:33:00,
2013-01-02 01:38:00,21.4,12.8,29.86,West,270,0.7,2.3,69,0.00,CLR,FEW,0.00,WeatherDisplay:10.37,2013-01-02 06:38:00,
2013-01-02 01:43:00,21.2,12.6,29.86,WNW,292,0.0,0.0,69,0.00,CLR,FEW,0.00,WeatherDisplay:10.37,2013-01-02 06:43:00,
2013-01-02 01:48:00,21.2,12.6,29.86,WNW,292,0.2,1.1,69,0.00,CLR,FEW,0.00,WeatherDisplay:10.37,2013-01-02 06:48:00,
2013-01-02 01:53:00,21.0,12.4,29.86,WNW,292,0.5,1.1,69,0.00,CLR,FEW,0.00,WeatherDisplay:10.37,2013-01-02 06:53:00,
2013-01-02 01:58:00,20.8,12.3,29.87,WNW,292,0.5,2.3,69,0.00,CLR,FEW,0.00,WeatherDisplay:10.37,2013-01-02 06:58:00,
2013-01-02 02:03:00,20.7,12.1,29.87,West,270,0.0,2.3,69,0.00,CLR,FEW,0.00,WeatherDisplay:10.37,2013-01-02 07:03:00,
2013-01-02 02:08:00,20.5,11.9,29.87,West,270,0.5,1.1,69,0.00,CLR,FEW,0.00,WeatherDisplay:10.37,2013-01-02 07:08:00,
2013-01-02 02:13:00,20.5,11.9,29.87,WSW,248,1.6,1.6,69,0.00,CLR,FEW,0.00,WeatherDisplay:10.37,2013-01-02 07:13:00,
2013-01-02 02:18:00,20.5,11.9,29.87,NW,315,0.5,1.1,69,0.00,CLR,FEW,0.00,WeatherDisplay:10.37,2013-01-02 07:18:00,
2013-01-02 02:23:00,20.5,11.9,29.88,West,270,0.7,2.3,69,0.00,CLR,FEW,0.00,WeatherDisplay:10.37,2013-01-02 07:23:00,
2013-01-02 02:28:00,20.5,11.6,29.88,NW,315,2.2,4.6,68,0.00,CLR,FEW,0.00,WeatherDisplay:10.37,2013-01-02 07:28:00,
2013-01-02 02:33:00,20.5,11.6,29.88,NW,315,0.5,1.1,68,0.00,CLR,FEW,0.00,WeatherDisplay:10.37,2013-01-02 07:33:00,
2013-01-02 02:38:00,20.3,11.7,29.89,West,270,0.2,0.2,69,0.00,CLR,FEW,0.00,WeatherDisplay:10.37,2013-01-02 07:38:00,
2013-01-02 02:43:00,20.1,11.6,29.89,WSW,248,0.2,0.2,69,0.00,CLR,FEW,0.00,WeatherDisplay:10.37,2013-01-02 07:43:00,
2013-01-02 02:48:00,19.9,11.4,29.89,West,270,0.0,1.1,69,0.00,CLR,FEW,0.00,WeatherDisplay:10.37,2013-01-02 07:48:00,
2013-01-02 02:53:00,19.8,11.2,29.88,West,270,0.0,0.0,69,0.00,CLR,FEW,0.00,WeatherDisplay:10.37,2013-01-02 07:53:00,
2013-01-02 02:58:00,19.8,11.2,29.88,NW,315,1.4,1.4,69,0.00,CLR,FEW,0.00,WeatherDisplay:10.37,2013-01-02 07:58:00,
2013-01-02 03:03:00,19.4,10.9,29.88,NW,315,1.1,1.1,69,0.00,CLR,FEW,0.00,WeatherDisplay:10.37,2013-01-02 08:03:00,
2013-01-02 03:08:00,19.4,10.9,29.88,NW,315,1.1,1.1,69,0.00,CLR,FEW,0.00,WeatherDisplay:10.37,2013-01-02 08:08:00,
2013-01-02 03:13:00,19.2,10.7,29.89,SSW,202,0.0,0.0,69,0.00,CLR,FEW,0.00,WeatherDisplay:10.37,2013-01-02 08:13:00,
2013-01-02 03:18:00,19.2,10.7,29.89,NW,315,1.1,1.1,69,0.00,CLR,FEW,0.00,WeatherDisplay:10.37,2013-01-02 08:18:00,
2013-01-02 03:23:00,19.0,10.5,29.88,WSW,248,0.5,3.5,69,0.00,CLR,FEW,0.00,WeatherDisplay:10.37,2013-01-02 08:23:00,
2013-01-02 03:28:00,19.0,10.5,29.88,NW,315,0.0,1.1,69,0.00,CLR,FEW,0.00,WeatherDisplay:10.37,2013-01-02 08:28:00,
2013-01-02 03:33:00,19.0,10.5,29.88,NW,315,0.0,1.1,69,0.00,CLR,FEW,0.00,WeatherDisplay:10.37,2013-01-02 08:33:00,
2013-01-02 03:38:00,18.9,10.4,29.88,NW,315,1.1,1.1,69,0.00,CLR,FEW,0.00,WeatherDisplay:10.37,2013-01-02 08:38:00,
2013-01-02 03:43:00,18.9,10.4,29.88,NW,315,1.6,1.6,69,0.00,CLR,FEW,0.00,WeatherDisplay:10.37,2013-01-02 08:43:00,
2013-01-02 03:48:00,18.7,10.2,29.88,NW,315,0.0,1.1,69,0.00,CLR,FEW,0.00,WeatherDisplay:10.37,2013-01-02 08:48:00,
2013-01-02 03:54:00,18.5,10.0,29.88,WSW,248,0.2,1.1,69,0.00,CLR,FEW,0.00,WeatherDisplay:10.37,2013-01-02 08:54:00,
2013-01-02 03:59:00,18.3,9.8,29.88,NW,315,0.0,0.0,69,0.00,CLR,FEW,0.00,WeatherDisplay:10.37,2013-01-02 08:59:00,
2013-01-02 04:04:00,18.3,10.2,29.88,NW,315,0.2,0.2,70,0.00,CLR,FEW,0.00,WeatherDisplay:10.37,2013-01-02 09:04:00,
2013-01-02 04:09:00,18.1,10.0,29.88,West,270,0.0,0.0,70,0.00,CLR,FEW,0.00,WeatherDisplay:10.37,2013-01-02 09:09:00,
2013-01-02 04:14:00,18.0,9.8,29.88,NW,315,0.0,0.0,70,0.00,CLR,FEW,0.00,WeatherDisplay:10.37,2013-01-02 09:14:00,
2013-01-02 04:19:00,17.8,9.6,29.87,WNW,292,0.0,0.0,70,0.00,CLR,FEW,0.00,WeatherDisplay:10.37,2013-01-02 09:19:00,
2013-01-02 04:24:00,17.6,9.5,29.88,NW,315,0.2,0.2,70,0.00,CLR,FEW,0.00,WeatherDisplay:10.37,2013-01-02 09:24:00,
2013-01-02 04:29:00,17.4,9.6,29.88,NW,315,0.5,0.5,71,0.00,CLR,FEW,0.00,WeatherDisplay:10.37,2013-01-02 09:29:00,
2013-01-02 04:34:00,17.2,9.4,29.88,NW,315,0.0,0.0,71,0.00,CLR,FEW,0.00,WeatherDisplay:10.37,2013-01-02 09:34:00,
2013-01-02 04:39:00,17.1,9.3,29.88,WNW,292,0.2,0.2,71,0.00,CLR,FEW,0.00,WeatherDisplay:10.37,2013-01-02 09:39:00,
2013-01-02 04:44:00,17.1,9.3,29.88,WSW,248,0.2,0.2,71,0.00,CLR,FEW,0.00,WeatherDisplay:10.37,2013-01-02 09:44:00,
2013-01-02 04:49:00,16.9,9.1,29.88,NW,315,0.5,0.5,71,0.00,CLR,FEW,0.00,WeatherDisplay:10.37,2013-01-02 09:49:00,
2013-01-02 04:54:00,16.9,9.1,29.87,NW,315,0.0,0.0,71,0.00,CLR,FEW,0.00,WeatherDisplay:10.37,2013-01-02 09:54:00,
2013-01-02 04:59:00,16.9,9.1,29.87,West,270,0.0,0.0,71,0.00,CLR,FEW,0.00,WeatherDisplay:10.37,2013-01-02 09:59:00,
2013-01-02 05:04:00,16.7,8.9,29.87,SSW,202,0.0,0.0,71,0.00,CLR,FEW,0.00,WeatherDisplay:10.37,2013-01-02 10:04:00,
2013-01-02 05:09:00,16.7,8.9,29.88,WSW,248,0.0,0.0,71,0.00,CLR,FEW,0.00,WeatherDisplay:10.37,2013-01-02 10:09:00,
2013-01-02 05:14:00,16.5,8.8,29.88,WNW,292,0.0,0.0,71,0.00,CLR,FEW,0.00,WeatherDisplay:10.37,2013-01-02 10:14:00,
2013-01-02 05:19:00,16.5,8.8,29.87,WNW,292,0.0,1.1,71,0.00,CLR,FEW,0.00,WeatherDisplay:10.37,2013-01-02 10:19:00,
2013-01-02 05:24:00,16.3,8.6,29.87,WNW,292,0.0,0.0,71,0.00,CLR,FEW,0.00,WeatherDisplay:10.37,2013-01-02 10:24:00,
2013-01-02 05:29:00,16.2,8.4,29.88,NW,315,0.0,0.0,71,0.00,CLR,FEW,0.00,WeatherDisplay:10.37,2013-01-02 10:29:00,
2013-01-02 05:34:00,16.2,8.4,29.88,WNW,292,0.5,0.5,71,0.00,CLR,FEW,0.00,WeatherDisplay:10.37,2013-01-02 10:34:00,
2013-01-02 05:39:00,16.0,8.2,29.88,NW,315,0.2,0.2,71,0.00,CLR,FEW,0.00,WeatherDisplay:10.37,2013-01-02 10:39:00,
2013-01-02 05:44:00,16.0,8.2,29.87,West,270,0.0,0.0,71,0.00,CLR,FEW,0.00,WeatherDisplay:10.37,2013-01-02 10:44:00,
2013-01-02 05:49:00,15.8,8.1,29.88,West,270,0.0,0.0,71,0.00,CLR,FEW,0.00,WeatherDisplay:10.37,2013-01-02 10:49:00,
2013-01-02 05:54:00,15.8,8.1,29.88,West,270,0.0,0.0,71,0.00,CLR,FEW,0.00,WeatherDisplay:10.37,2013-01-02 10:54:00,
2013-01-02 05:59:00,15.6,7.9,29.88,West,270,0.0,0.0,71,0.00,CLR,FEW,0.00,WeatherDisplay:10.37,2013-01-02 10:59:00,
2013-01-02 06:04:00,15.4,7.7,29.88,WNW,292,0.2,0.2,71,0.00,CLR,FEW,0.00,WeatherDisplay:10.37,2013-01-02 11:04:00,
2013-01-02 06:09:00,15.4,7.7,29.88,WNW,292,0.0,0.0,71,0.00,CLR,FEW,0.00,WeatherDisplay:10.37,2013-01-02 11:09:00,
2013-01-02 06:14:00,15.4,7.7,29.89,West,270,0.0,0.0,71,0.00,CLR,FEW,0.00,WeatherDisplay:10.37,2013-01-02 11:14:00,
2013-01-02 06:19:00,15.4,7.7,29.89,WNW,292,0.0,0.0,71,0.00,CLR,FEW,0.00,WeatherDisplay:10.37,2013-01-02 11:19:00,
2013-01-02 06:24:00,15.3,7.5,29.88,West,270,0.0,0.0,71,0.00,CLR,FEW,0.00,WeatherDisplay:10.37,2013-01-02 11:24:00,
2013-01-02 06:29:00,15.3,7.8,29.88,WNW,292,0.0,0.0,72,0.00,CLR,FEW,0.00,WeatherDisplay:10.37,2013-01-02 11:29:00,
2013-01-02 06:34:00,15.1,7.7,29.88,WNW,292,0.0,0.0,72,0.00,CLR,FEW,0.00,WeatherDisplay:10.37,2013-01-02 11:34:00,
2013-01-02 06:39:00,14.9,7.5,29.88,WNW,292,0.0,0.0,72,0.00,CLR,FEW,0.00,WeatherDisplay:10.37,2013-01-02 11:39:00,
2013-01-02 06:44:00,14.7,7.3,29.88,WSW,248,0.0,0.0,72,0.00,CLR,FEW,0.00,WeatherDisplay:10.37,2013-01-02 11:44:00,
2013-01-02 06:49:00,14.7,7.3,29.89,WNW,292,0.0,0.0,72,0.00,CLR,FEW,0.00,WeatherDisplay:10.37,2013-01-02 11:49:00,
2013-01-02 06:54:00,14.7,7.3,29.89,West,270,0.9,0.9,72,0.00,CLR,FEW,0.00,WeatherDisplay:10.37,2013-01-02 11:54:00,
2013-01-02 06:59:00,14.7,7.6,29.89,SW,225,0.2,0.2,73,0.00,CLR,FEW,0.00,WeatherDisplay:10.37,2013-01-02 11:59:00,
2013-01-02 07:04:00,14.9,7.8,29.89,West,270,0.0,0.0,73,0.00,CLR,FEW,0.00,WeatherDisplay:10.37,2013-01-02 12:04:00,
2013-01-02 07:09:00,14.9,7.8,29.89,West,270,0.5,1.1,73,0.00,CLR,FEW,0.00,WeatherDisplay:10.37,2013-01-02 12:09:00,
2013-01-02 07:14:00,15.1,8.0,29.88,NW,315,0.0,0.0,73,0.00,CLR,FEW,0.00,WeatherDisplay:10.37,2013-01-02 12:14:00,
2013-01-02 07:19:00,15.1,8.0,29.88,NW,315,0.2,0.2,73,0.00,CLR,FEW,0.00,WeatherDisplay:10.37,2013-01-02 12:19:00,
2013-01-02 07:24:00,15.1,8.0,29.88,WNW,292,0.0,0.0,73,0.00,CLR,FEW,0.00,WeatherDisplay:10.37,2013-01-02 12:24:00,
2013-01-02 07:29:00,15.3,8.2,29.88,SW,225,0.5,0.5,73,0.00,CLR,FEW,0.00,WeatherDisplay:10.37,2013-01-02 12:29:00,
2013-01-02 07:34:00,15.4,8.3,29.88,NW,315,0.0,0.0,73,0.00,CLR,FEW,0.00,WeatherDisplay:10.37,2013-01-02 12:34:00,
2013-01-02 07:39:00,15.6,8.5,29.88,West,270,0.0,0.0,73,0.00,CLR,FEW,0.00,WeatherDisplay:10.37,2013-01-02 12:39:00,
2013-01-02 07:44:00,16.0,8.8,29.88,SW,225,0.5,0.5,73,0.00,CLR,FEW,0.00,WeatherDisplay:10.37,2013-01-02 12:44:00,
2013-01-02 07:49:00,16.3,9.2,29.88,SW,225,0.0,0.0,73,0.00,CLR,FEW,0.00,WeatherDisplay:10.37,2013-01-02 12:49:00,
2013-01-02 07:54:00,16.7,9.5,29.87,West,270,0.7,1.1,73,0.00,CLR,FEW,0.00,WeatherDisplay:10.37,2013-01-02 12:54:00,
2013-01-02 07:59:00,16.9,9.4,29.88,WNW,292,0.7,1.1,72,0.00,CLR,FEW,0.00,WeatherDisplay:10.37,2013-01-02 12:59:00,
2013-01-02 08:04:00,17.4,9.9,29.89,West,270,0.5,2.3,72,0.00,CLR,FEW,0.00,WeatherDisplay:10.37,2013-01-02 13:04:00,
2013-01-02 08:09:00,18.0,10.1,29.89,NW,315,0.5,1.1,71,0.00,CLR,FEW,0.00,WeatherDisplay:10.37,2013-01-02 13:09:00,
2013-01-02 08:14:00,18.3,10.5,29.89,NW,315,0.5,2.3,71,0.00,CLR,FEW,0.00,WeatherDisplay:10.37,2013-01-02 13:14:00,
2013-01-02 08:19:00,18.7,10.5,29.89,WSW,248,0.2,1.1,70,0.00,CLR,FEW,0.00,WeatherDisplay:10.37,2013-01-02 13:19:00,
2013-01-02 08:24:00,19.0,10.9,29.88,SSW,202,0.0,1.1,70,0.00,CLR,FEW,0.00,WeatherDisplay:10.37,2013-01-02 13:24:00,
2013-01-02 08:29:00,19.4,10.9,29.89,WNW,292,0.5,1.1,69,0.00,CLR,FEW,0.00,WeatherDisplay:10.37,2013-01-02 13:29:00,
2013-01-02 08:34:00,19.8,11.2,29.89,WNW,292,1.4,1.4,69,0.00,CLR,FEW,0.00,WeatherDisplay:10.37,2013-01-02 13:34:00,
2013-01-02 08:39:00,19.9,11.4,29.89,WSW,248,1.6,3.5,69,0.00,CLR,FEW,0.00,WeatherDisplay:10.37,2013-01-02 13:39:00,
2013-01-02 08:44:00,20.5,11.6,29.89,NW,315,1.6,1.6,68,0.00,CLR,FEW,0.00,WeatherDisplay:10.37,2013-01-02 13:44:00,
2013-01-02 08:49:00,20.7,11.1,29.89,NW,315,0.9,1.1,66,0.00,CLR,FEW,0.00,WeatherDisplay:10.37,2013-01-02 13:49:00,
2013-01-02 08:54:00,20.8,11.6,29.90,NW,315,0.5,2.3,67,0.00,CLR,FEW,0.00,WeatherDisplay:10.37,2013-01-02 13:54:00,
2013-01-02 08:59:00,21.2,11.6,29.90,NW,315,0.9,1.1,66,0.00,CLR,FEW,0.00,WeatherDisplay:10.37,2013-01-02 13:59:00,
2013-01-02 09:04:00,21.6,11.6,29.90,NW,315,0.5,0.5,65,0.00,CLR,FEW,0.00,WeatherDisplay:10.37,2013-01-02 14:04:00,
2013-01-02 09:09:00,21.9,12.3,29.90,WNW,292,0.7,4.6,66,0.00,CLR,FEW,0.00,WeatherDisplay:10.37,2013-01-02 14:09:00,
2013-01-02 09:14:00,22.5,12.8,29.90,SSW,202,0.5,1.1,66,0.00,CLR,FEW,0.00,WeatherDisplay:10.37,2013-01-02 14:14:00,
2013-01-02 09:19:00,22.8,13.2,29.90,WSW,248,0.2,1.1,66,0.00,CLR,FEW,0.00,WeatherDisplay:10.37,2013-01-02 14:19:00,
2013-01-02 09:24:00,23.2,13.1,29.90,WSW,248,0.0,0.0,65,0.00,CLR,FEW,0.00,WeatherDisplay:10.37,2013-01-02 14:24:00,
2013-01-02 09:29:00,23.4,13.7,29.89,NW,315,1.1,1.1,66,0.00,CLR,FEW,0.00,WeatherDisplay:10.37,2013-01-02 14:29:00,
2013-01-02 09:34:00,23.7,13.7,29.90,WNW,292,1.4,1.4,65,0.00,CLR,FEW,0.00,WeatherDisplay:10.37,2013-01-02 14:34:00,
2013-01-02 09:39:00,24.1,13.7,29.90,SW,225,2.0,2.3,64,0.00,CLR,FEW,0.00,WeatherDisplay:10.37,2013-01-02 14:39:00,
2013-01-02 09:44:00,24.4,14.0,29.90,NW,315,0.5,1.1,64,0.00,CLR,FEW,0.00,WeatherDisplay:10.37,2013-01-02 14:44:00,
2013-01-02 09:49:00,24.8,14.0,29.90,WSW,248,4.0,4.6,63,0.00,CLR,FEW,0.00,WeatherDisplay:10.37,2013-01-02 14:49:00,
2013-01-02 09:54:00,25.2,14.0,29.90,WNW,292,0.7,1.1,62,0.00,CLR,FEW,0.00,WeatherDisplay:10.37,2013-01-02 14:54:00,
2013-01-02 09:59:00,25.5,14.3,29.90,WNW,292,0.7,1.1,62,0.00,CLR,FEW,0.00,WeatherDisplay:10.37,2013-01-02 14:59:00,
2013-01-02 10:04:00,26.1,15.2,29.90,WNW,292,0.7,1.1,63,0.00,CLR,FEW,0.00,WeatherDisplay:10.37,2013-01-02 15:04:00,
2013-01-02 10:09:00,26.4,14.8,29.90,West,270,1.4,1.4,61,0.00,CLR,FEW,0.00,WeatherDisplay:10.37,2013-01-02 15:09:00,
2013-01-02 10:14:00,26.4,14.8,29.90,SW,225,0.0,0.0,61,0.00,CLR,FEW,0.00,WeatherDisplay:10.37,2013-01-02 15:14:00,
2013-01-02 10:19:00,26.6,14.2,29.90,WSW,248,0.9,1.1,59,0.00,CLR,FEW,0.00,WeatherDisplay:10.37,2013-01-02 15:19:00,
2013-01-02 10:24:00,27.0,15.3,29.90,NW,315,0.2,1.1,61,0.00,CLR,FEW,0.00,WeatherDisplay:10.37,2013-01-02 15:24:00,
2013-01-02 10:29:00,27.1,14.7,29.90,WNW,292,1.1,2.3,59,0.00,CLR,FEW,0.00,WeatherDisplay:10.37,2013-01-02 15:29:00,
2013-01-02 10:34:00,27.3,15.6,29.89,WNW,292,0.0,0.0,61,0.00,CLR,FEW,0.00,WeatherDisplay:10.37,2013-01-02 15:34:00,
2013-01-02 10:39:00,27.7,15.2,29.89,SSW,202,0.9,2.3,59,0.00,CLR,FEW,0.00,WeatherDisplay:10.37,2013-01-02 15:39:00,
2013-01-02 10:44:00,27.7,15.6,29.89,SSW,202,1.1,2.3,60,0.00,CLR,FEW,0.00,WeatherDisplay:10.37,2013-01-02 15:44:00,
2013-01-02 10:49:00,27.9,15.4,29.88,SSW,202,0.5,2.3,59,0.00,CLR,FEW,0.00,WeatherDisplay:10.37,2013-01-02 15:49:00,
2013-01-02 10:54:00,28.2,15.3,29.88,WSW,248,1.4,1.4,58,0.00,CLR,FEW,0.00,WeatherDisplay:10.37,2013-01-02 15:54:00,
2013-01-02 10:59:00,28.2,15.3,29.88,SSW,202,0.5,1.1,58,0.00,CLR,FEW,0.00,WeatherDisplay:10.37,2013-01-02 15:59:00,
2013-01-02 11:04:00,28.4,15.1,29.88,WNW,292,1.8,2.3,57,0.00,CLR,FEW,0.00,WeatherDisplay:10.37,2013-01-02 16:04:00,
2013-01-02 11:09:00,28.6,15.7,29.88,SW,225,0.2,2.3,58,0.00,CLR,FEW,0.00,WeatherDisplay:10.37,2013-01-02 16:09:00,
2013-01-02 11:14:00,28.9,15.6,29.87,SSW,202,0.5,2.3,57,0.00,CLR,FEW,0.00,WeatherDisplay:10.37,2013-01-02 16:14:00,
2013-01-02 11:19:00,29.3,15.9,29.87,SSW,202,1.8,2.3,57,0.00,CLR,FEW,0.00,WeatherDisplay:10.37,2013-01-02 16:19:00,
2013-01-02 11:24:00,29.7,16.7,29.87,SSW,202,0.5,0.5,58,0.00,CLR,FEW,0.00,WeatherDisplay:10.37,2013-01-02 16:24:00,
2013-01-02 11:29:00,30.0,16.6,29.86,WNW,292,1.4,1.4,57,0.00,CLR,FEW,0.00,WeatherDisplay:10.37,2013-01-02 16:29:00,
2013-01-02 11:34:00,30.4,16.9,29.86,SSW,202,0.7,0.7,57,0.00,CLR,FEW,0.00,WeatherDisplay:10.37,2013-01-02 16:34:00,
2013-01-02 11:39:00,30.6,15.4,29.86,NW,315,0.9,1.1,53,0.00,CLR,FEW,0.00,WeatherDisplay:10.37,2013-01-02 16:39:00,
2013-01-02 11:44:00,30.6,15.9,29.86,NW,315,1.6,2.3,54,0.00,CLR,FEW,0.00,WeatherDisplay:10.37,2013-01-02 16:44:00,
2013-01-02 11:49:00,30.6,15.9,29.86,NW,315,1.1,3.5,54,0.01,RA,FEW,0.01,WeatherDisplay:10.37,2013-01-02 16:49:00,
2013-01-02 11:54:00,30.6,15.9,29.86,WNW,292,3.3,3.5,54,0.01,RA,FEW,0.01,WeatherDisplay:10.37,2013-01-02 16:54:00,
2013-01-02 11:59:00,30.4,15.3,29.86,WSW,248,1.1,2.3,53,0.01,CLR,FEW,0.01,WeatherDisplay:10.37,2013-01-02 16:59:00,
2013-01-02 12:04:00,30.7,16.0,29.86,West,270,0.5,2.3,54,0.01,CLR,FEW,0.01,WeatherDisplay:10.37,2013-01-02 17:04:00,
2013-01-02 12:09:00,30.9,16.6,29.85,SW,225,4.0,4.0,55,0.01,CLR,FEW,0.01,WeatherDisplay:10.37,2013-01-02 17:09:00,
2013-01-02 12:14:00,31.3,16.5,29.85,NW,315,2.2,2.3,54,0.01,CLR,FEW,0.01,WeatherDisplay:10.37,2013-01-02 17:14:00,
2013-01-02 12:19:00,31.5,16.7,29.85,West,270,1.1,1.1,54,0.01,CLR,FEW,0.01,WeatherDisplay:10.37,2013-01-02 17:19:00,
2013-01-02 12:24:00,31.5,16.3,29.85,West,270,1.1,2.3,53,0.01,CLR,FEW,0.01,WeatherDisplay:10.37,2013-01-02 17:24:00,
2013-01-02 12:29:00,31.5,16.3,29.85,SSW,202,0.5,4.6,53,0.01,CLR,FEW,0.01,WeatherDisplay:10.37,2013-01-02 17:29:00,
2013-01-02 12:34:00,31.5,16.3,29.85,NW,315,1.4,3.5,53,0.02,RA,FEW,0.02,WeatherDisplay:10.37,2013-01-02 17:34:00,
2013-01-02 12:39:00,31.6,16.9,29.85,NW,315,1.8,3.5,54,0.02,RA,FEW,0.02,WeatherDisplay:10.37,2013-01-02 17:39:00,
2013-01-02 12:44:00,31.6,16.9,29.85,West,270,1.8,4.6,54,0.02,CLR,FEW,0.02,WeatherDisplay:10.37,2013-01-02 17:44:00,
2013-01-02 12:49:00,31.6,16.4,29.84,WSW,248,1.6,2.3,53,0.02,RA,FEW,0.03,WeatherDisplay:10.37,2013-01-02 17:49:00,
2013-01-02 12:54:00,31.6,16.4,29.84,West,270,1.6,2.3,53,0.02,RA,FEW,0.03,WeatherDisplay:10.37,2013-01-02 17:54:00,
2013-01-02 12:59:00,31.8,17.0,29.84,NW,315,0.5,1.1,54,0.02,,FEW,0.03,WeatherDisplay:10.37,2013-01-02 17:59:00,
2013-01-02 13:04:00,32.0,17.6,29.84,SW,225,6.0,6.0,55,0.02,CLR,FEW,0.03,WeatherDisplay:10.37,2013-01-02 18:04:00,
2013-01-02 13:09:00,32.0,16.8,29.84,WSW,248,0.9,2.3,53,0.02,CLR,FEW,0.03,WeatherDisplay:10.37,2013-01-02 18:09:00,
2013-01-02 13:14:00,32.0,17.2,29.84,SSW,202,1.8,2.3,54,0.02,CLR,FEW,0.03,WeatherDisplay:10.37,2013-01-02 18:14:00,
2013-01-02 13:19:00,32.0,17.6,29.84,West,270,1.8,2.3,55,0.02,CLR,FEW,0.03,WeatherDisplay:10.37,2013-01-02 18:19:00,
2013-01-02 13:24:00,32.0,17.6,29.84,West,270,1.8,2.3,55,0.02,CLR,FEW,0.03,WeatherDisplay:10.37,2013-01-02 18:24:00,
2013-01-02 13:29:00,32.0,17.6,29.84,West,270,1.8,2.3,55,0.02,CLR,FEW,0.03,WeatherDisplay:10.37,2013-01-02 18:29:00,
2013-01-02 13:34:00,32.2,18.2,29.83,West,270,1.8,2.3,56,0.01,CLR,FEW,0.03,WeatherDisplay:10.37,2013-01-02 18:34:00,
2013-01-02 13:39:00,32.4,17.6,29.83,West,270,1.8,2.3,54,0.01,CLR,FEW,0.03,WeatherDisplay:10.37,2013-01-02 18:39:00,
2013-01-02 13:44:00,32.2,17.8,29.83,West,270,1.8,2.3,55,0.01,CLR,FEW,0.03,WeatherDisplay:10.37,2013-01-02 18:44:00,
2013-01-02 13:49:00,32.0,17.2,29.84,West,270,1.8,2.3,54,0.00,CLR,FEW,0.03,WeatherDisplay:10.37,2013-01-02 18:49:00,
2013-01-02 13:54:00,31.8,17.0,29.84,West,270,1.8,2.3,54,0.00,CLR,FEW,0.03,WeatherDisplay:10.37,2013-01-02 18:54:00,
2013-01-02 13:59:00,31.6,16.9,29.84,West,270,1.8,2.3,54,0.00,CLR,FEW,0.03,WeatherDisplay:10.37,2013-01-02 18:59:00,
2013-01-02 14:04:00,31.6,16.9,29.84,West,270,1.8,2.3,54,0.00,CLR,FEW,0.03,WeatherDisplay:10.37,2013-01-02 19:04:00,
2013-01-02 14:09:00,31.5,16.7,29.84,West,270,1.8,2.3,54,0.00,CLR,FEW,0.03,WeatherDisplay:10.37,2013-01-02 19:09:00,
2013-01-02 14:14:00,31.5,17.1,29.84,West,270,1.8,2.3,55,0.00,CLR,FEW,0.03,WeatherDisplay:10.37,2013-01-02 19:14:00,
2013-01-02 14:19:00,31.3,17.0,29.85,West,270,1.8,2.3,55,0.00,CLR,FEW,0.03,WeatherDisplay:10.37,2013-01-02 19:19:00,
2013-01-02 14:24:00,31.1,16.8,29.85,West,270,1.8,2.3,55,0.00,CLR,FEW,0.03,WeatherDisplay:10.37,2013-01-02 19:24:00,
2013-01-02 14:29:00,31.1,16.4,29.85,West,270,1.8,2.3,54,0.00,CLR,FEW,0.03,WeatherDisplay:10.37,2013-01-02 19:29:00,
2013-01-02 14:34:00,31.1,15.9,29.85,West,270,1.8,2.3,53,0.00,CLR,FEW,0.03,WeatherDisplay:10.37,2013-01-02 19:34:00,
2013-01-02 14:39:00,30.9,15.8,29.86,NW,315,0.7,1.1,53,0.00,CLR,FEW,0.03,WeatherDisplay:10.37,2013-01-02 19:39:00,
2013-01-02 14:44:00,30.7,16.0,29.86,SSW,202,2.0,2.0,54,0.00,CLR,FEW,0.03,WeatherDisplay:10.37,2013-01-02 19:44:00,
2013-01-02 14:49:00,30.7,16.5,29.86,NW,315,1.1,3.5,55,0.00,CLR,FEW,0.03,WeatherDisplay:10.37,2013-01-02 19:49:00,
2013-01-02 14:54:00,30.6,15.9,29.86,NW,315,4.0,4.6,54,0.00,CLR,FEW,0.03,WeatherDisplay:10.37,2013-01-02 19:54:00,
2013-01-02 14:59:00,30.6,15.9,29.87,SW,225,0.5,3.5,54,0.00,CLR,FEW,0.03,WeatherDisplay:10.37,2013-01-02 19:59:00,
2013-01-02 15:04:00,30.4,16.1,29.87,WNW,292,0.2,1.1,55,0.00,CLR,FEW,0.03,WeatherDisplay:10.37,2013-01-02 20:04:00,
2013-01-02 15:09:00,30.2,16.4,29.87,WNW,292,0.2,1.1,56,0.00,CLR,FEW,0.03,WeatherDisplay:10.37,2013-01-02 20:09:00,
2013-01-02 15:14:00,30.0,16.2,29.87,NW,315,0.0,2.3,56,0.00,CLR,FEW,0.03,WeatherDisplay:10.37,2013-01-02 20:14:00,
2013-01-02 15:19:00,30.0,16.2,29.87,WSW,248,0.5,3.5,56,0.00,CLR,FEW,0.03,WeatherDisplay:10.37,2013-01-02 20:19:00,
2013-01-02 15:24:00,29.8,16.4,29.87,NW,315,1.1,1.1,57,0.00,CLR,FEW,0.03,WeatherDisplay:10.37,2013-01-02 20:24:00,
2013-01-02 15:29:00,29.8,16.4,29.88,West,270,1.1,2.3,57,0.00,CLR,FEW,0.03,WeatherDisplay:10.37,2013-01-02 20:29:00,
2013-01-02 15:34:00,29.8,16.0,29.88,SSW,202,1.4,3.5,56,0.00,CLR,FEW,0.03,WeatherDisplay:10.37,2013-01-02 20:34:00,
2013-01-02 15:39:00,29.8,15.6,29.88,West,270,1.4,3.5,55,0.00,CLR,FEW,0.03,WeatherDisplay:10.37,2013-01-02 20:39:00,
2013-01-02 15:44:00,29.8,16.0,29.89,WSW,248,1.1,2.3,56,0.00,CLR,FEW,0.03,WeatherDisplay:10.37,2013-01-02 20:44:00,
2013-01-02 15:49:00,29.5,15.7,29.89,NW,315,4.5,6.9,56,0.00,CLR,FEW,0.03,WeatherDisplay:10.37,2013-01-02 20:49:00,
2013-01-02 15:54:00,29.3,15.1,29.89,SW,225,0.2,2.3,55,0.00,CLR,FEW,0.03,WeatherDisplay:10.37,2013-01-02 20:54:00,
2013-01-02 15:59:00,29.1,15.4,29.89,NW,315,0.5,2.3,56,0.00,CLR,FEW,0.03,WeatherDisplay:10.37,2013-01-02 20:59:00,
2013-01-02 16:04:00,29.1,15.4,29.90,NW,315,1.6,2.3,56,0.00,CLR,FEW,0.03,WeatherDisplay:10.37,2013-01-02 21:04:00,
2013-01-02 16:09:00,28.8,15.0,29.90,NW,315,0.9,2.3,56,0.00,CLR,FEW,0.03,WeatherDisplay:10.37,2013-01-02 21:09:00,
2013-01-02 16:14:00,28.6,14.9,29.90,NW,315,0.5,2.3,56,0.00,CLR,FEW,0.03,WeatherDisplay:10.37,2013-01-02 21:14:00,
2013-01-02 16:19:00,28.4,15.1,29.90,NW,315,3.3,3.5,57,0.00,CLR,FEW,0.03,WeatherDisplay:10.37,2013-01-02 21:19:00,
2013-01-02 16:24:00,28.2,14.9,29.91,NW,315,3.3,3.3,57,0.00,CLR,FEW,0.03,WeatherDisplay:10.37,2013-01-02 21:24:00,
2013-01-02 16:29:00,28.0,15.2,29.91,NW,315,0.9,1.1,58,0.00,CLR,FEW,0.03,WeatherDisplay:10.37,2013-01-02 21:29:00,
2013-01-02 16:34:00,27.9,15.0,29.91,NW,315,2.2,2.3,58,0.00,CLR,FEW,0.03,WeatherDisplay:10.37,2013-01-02 21:34:00,
2013-01-02 16:39:00,27.9,15.0,29.91,WNW,292,0.0,2.3,58,0.00,CLR,FEW,0.03,WeatherDisplay:10.37,2013-01-02 21:39:00,
2013-01-02 16:44:00,27.7,15.2,29.91,WNW,292,1.1,2.3,59,0.00,CLR,FEW,0.03,WeatherDisplay:10.37,2013-01-02 21:44:00,
2013-01-02 16:49:00,27.7,15.2,29.92,NW,315,0.0,3.5,59,0.00,CLR,FEW,0.03,WeatherDisplay:10.37,2013-01-02 21:49:00,
2013-01-02 16:54:00,27.5,15.4,29.92,NW,315,0.9,3.5,60,0.00,CLR,FEW,0.03,WeatherDisplay:10.37,2013-01-02 21:54:00,
2013-01-02 16:59:00,27.3,15.2,29.91,WNW,292,5.4,5.8,60,0.00,CLR,FEW,0.03,WeatherDisplay:10.37,2013-01-02 21:59:00,
2013-01-02 17:04:00,27.3,15.2,29.91,SW,225,0.2,1.1,60,0.00,CLR,FEW,0.03,WeatherDisplay:10.37,2013-01-02 22:04:00,
2013-01-02 17:09:00,27.0,14.9,29.92,NW,315,0.0,1.1,60,0.00,CLR,FEW,0.03,WeatherDisplay:10.37,2013-01-02 22:09:00,
2013-01-02 17:14:00,27.0,15.3,29.93,NW,315,0.0,0.0,61,0.00,CLR,FEW,0.03,WeatherDisplay:10.37,2013-01-02 22:14:00,
2013-01-02 17:19:00,26.6,14.9,29.93,NW,315,4.0,4.6,61,0.00,CLR,FEW,0.03,WeatherDisplay:10.37,2013-01-02 22:19:00,
2013-01-02 17:24:00,26.6,14.9,29.93,NW,315,0.5,0.5,61,0.00,CLR,FEW,0.03,WeatherDisplay:10.37,2013-01-02 22:24:00,
2013-01-02 17:29:00,26.2,15.0,29.93,SW,225,0.5,0.5,62,0.00,CLR,FEW,0.03,WeatherDisplay:10.37,2013-01-02 22:29:00,
2013-01-02 17:34:00,26.1,14.4,29.93,WNW,292,0.2,0.2,61,0.00,CLR,FEW,0.03,WeatherDisplay:10.37,2013-01-02 22:34:00,
2013-01-02 17:39:00,25.9,14.3,29.93,NW,315,0.5,1.1,61,0.00,CLR,FEW,0.03,WeatherDisplay:10.37,2013-01-02 22:39:00,
2013-01-02 17:44:00,25.9,14.6,29.93,NW,315,1.4,1.4,62,0.00,CLR,FEW,0.03,WeatherDisplay:10.37,2013-01-02 22:44:00,
2013-01-02 17:49:00,25.7,14.5,29.93,West,270,1.8,2.3,62,0.00,CLR,FEW,0.03,WeatherDisplay:10.37,2013-01-02 22:49:00,
2013-01-02 17:54:00,25.5,14.3,29.94,WNW,292,0.2,0.2,62,0.00,CLR,FEW,0.03,WeatherDisplay:10.37,2013-01-02 22:54:00,
2013-01-02 17:59:00,25.5,14.3,29.94,NW,315,0.5,1.1,62,0.00,CLR,FEW,0.03,WeatherDisplay:10.37,2013-01-02 22:59:00,
2013-01-02 18:04:00,25.5,14.3,29.95,NW,315,0.2,1.1,62,0.00,CLR,FEW,0.03,WeatherDisplay:10.37,2013-01-02 23:04:00,
2013-01-02 18:09:00,25.2,14.0,29.95,NW,315,1.4,1.4,62,0.00,CLR,FEW,0.03,WeatherDisplay:10.37,2013-01-02 23:09:00,
2013-01-02 18:14:00,25.0,13.8,29.94,NW,315,1.1,5.8,62,0.00,CLR,FEW,0.03,WeatherDisplay:10.37,2013-01-02 23:14:00,
2013-01-02 18:19:00,25.2,14.0,29.94,WNW,292,1.4,4.6,62,0.00,CLR,FEW,0.03,WeatherDisplay:10.37,2013-01-02 23:19:00,
2013-01-02 18:24:00,25.2,14.0,29.95,WNW,292,0.5,0.5,62,0.00,CLR,FEW,0.03,WeatherDisplay:10.37,2013-01-02 23:24:00,
2013-01-02 18:29:00,25.2,14.0,29.95,NW,315,2.9,2.9,62,0.00,CLR,FEW,0.03,WeatherDisplay:10.37,2013-01-02 23:29:00,
2013-01-02 18:34:00,25.0,13.8,29.95,West,270,0.9,1.6,62,0.00,CLR,FEW,0.03,WeatherDisplay:10.37,2013-01-02 23:34:00,
2013-01-02 18:39:00,25.0,13.4,29.96,NW,315,0.0,1.1,61,0.00,CLR,FEW,0.03,WeatherDisplay:10.37,2013-01-02 23:39:00,
2013-01-02 18:44:00,25.0,13.8,29.95,NW,315,3.3,3.3,62,0.00,CLR,FEW,0.03,WeatherDisplay:10.37,2013-01-02 23:44:00,
2013-01-02 18:49:00,24.8,13.2,29.95,WNW,292,0.5,3.5,61,0.00,CLR,FEW,0.03,WeatherDisplay:10.37,2013-01-02 23:49:00,
2013-01-02 18:54:00,24.8,13.6,29.96,SSW,202,1.4,1.4,62,0.00,CLR,FEW,0.03,WeatherDisplay:10.37,2013-01-02 23:54:00,
2013-01-02 18:59:00,24.8,13.6,29.96,WNW,292,0.7,1.1,62,0.00,CLR,FEW,0.03,WeatherDisplay:10.37,2013-01-02 23:59:00,
2013-01-02 19:04:00,24.4,13.3,29.96,WNW,292,0.2,2.3,62,0.00,CLR,FEW,0.03,WeatherDisplay:10.37,2013-01-03 00:04:00,
2013-01-02 19:09:00,24.3,13.1,29.96,SSW,202,0.2,4.6,62,0.00,CLR,FEW,0.03,WeatherDisplay:10.37,2013-01-03 00:09:00,
2013-01-02 19:14:00,24.3,13.1,29.96,WSW,248,2.0,2.0,62,0.00,CLR,FEW,0.03,WeatherDisplay:10.37,2013-01-03 00:14:00,
2013-01-02 19:19:00,24.1,12.9,29.97,WNW,292,0.7,2.3,62,0.00,CLR,FEW,0.03,WeatherDisplay:10.37,2013-01-03 00:19:00,
2013-01-02 19:24:00,24.1,12.9,29.96,WSW,248,0.9,1.1,62,0.00,CLR,FEW,0.03,WeatherDisplay:10.37,2013-01-03 00:24:00,
2013-01-02 19:29:00,23.9,12.8,29.96,NW,315,0.7,1.1,62,0.00,CLR,FEW,0.03,WeatherDisplay:10.37,2013-01-03 00:29:00,
2013-01-02 19:34:00,23.9,12.8,29.96,SSW,202,0.2,1.1,62,0.00,CLR,FEW,0.03,WeatherDisplay:10.37,2013-01-03 00:34:00,
2013-01-02 19:39:00,23.5,12.8,29.96,WSW,248,0.2,0.2,63,0.00,CLR,FEW,0.03,WeatherDisplay:10.37,2013-01-03 00:39:00,
2013-01-02 19:44:00,23.4,12.6,29.96,NW,315,0.0,0.0,63,0.00,CLR,FEW,0.03,WeatherDisplay:10.37,2013-01-03 00:44:00,
2013-01-02 19:49:00,23.2,12.4,29.96,WNW,292,0.2,0.2,63,0.00,CLR,FEW,0.03,WeatherDisplay:10.37,2013-01-03 00:49:00,
2013-01-02 19:54:00,23.0,12.6,29.96,WNW,292,0.2,0.2,64,0.00,CLR,FEW,0.03,WeatherDisplay:10.37,2013-01-03 00:54:00,
2013-01-02 19:59:00,22.8,12.5,29.96,WNW,292,0.5,1.1,64,0.00,CLR,FEW,0.03,WeatherDisplay:10.37,2013-01-03 00:59:00,
2013-01-02 20:04:00,22.8,12.5,29.96,WNW,292,0.0,1.1,64,0.00,CLR,FEW,0.03,WeatherDisplay:10.37,2013-01-03 01:04:00,
2013-01-02 20:09:00,22.6,12.3,29.96,WSW,248,0.5,0.5,64,0.00,CLR,FEW,0.03,WeatherDisplay:10.37,2013-01-03 01:09:00,
2013-01-02 20:14:00,22.6,12.6,29.97,NW,315,0.5,1.1,65,0.00,CLR,FEW,0.03,WeatherDisplay:10.37,2013-01-03 01:14:00,
2013-01-02 20:19:00,22.3,12.3,29.97,NW,315,0.2,1.1,65,0.00,CLR,FEW,0.03,WeatherDisplay:10.37,2013-01-03 01:19:00,
2013-01-02 20:24:00,22.3,12.3,29.97,NW,315,0.2,0.2,65,0.00,CLR,FEW,0.03,WeatherDisplay:10.37,2013-01-03 01:24:00,
2013-01-02 20:29:00,21.9,11.9,29.97,SW,225,0.5,0.5,65,0.00,CLR,FEW,0.03,WeatherDisplay:10.37,2013-01-03 01:29:00,
2013-01-02 20:34:00,21.9,11.9,29.97,SW,225,0.2,0.2,65,0.00,CLR,FEW,0.03,WeatherDisplay:10.37,2013-01-03 01:34:00,
2013-01-02 20:39:00,21.7,11.8,29.98,NW,315,1.6,1.6,65,0.00,CLR,FEW,0.03,WeatherDisplay:10.37,2013-01-03 01:39:00,
2013-01-02 20:44:00,21.7,11.8,29.98,NW,315,0.2,0.2,65,0.00,CLR,FEW,0.03,WeatherDisplay:10.37,2013-01-03 01:44:00,
2013-01-02 20:49:00,21.6,11.6,29.97,NW,315,0.0,0.0,65,0.00,CLR,FEW,0.03,WeatherDisplay:10.37,2013-01-03 01:49:00,
2013-01-02 20:54:00,21.6,11.6,29.97,WNW,292,0.2,0.2,65,0.00,CLR,FEW,0.03,WeatherDisplay:10.37,2013-01-03 01:54:00,
2013-01-02 20:59:00,21.4,11.8,29.98,NW,315,0.0,0.0,66,0.00,CLR,FEW,0.03,WeatherDisplay:10.37,2013-01-03 01:59:00,
2013-01-02 21:04:00,21.2,11.6,29.97,NW,315,0.0,0.0,66,0.00,CLR,FEW,0.03,WeatherDisplay:10.37,2013-01-03 02:04:00,
2013-01-02 21:09:00,21.2,11.6,29.98,NW,315,0.0,0.0,66,0.00,CLR,FEW,0.03,WeatherDisplay:10.37,2013-01-03 02:09:00,
2013-01-02 21:14:00,21.0,11.4,29.97,NW,315,0.5,0.5,66,0.00,CLR,FEW,0.03,WeatherDisplay:10.37,2013-01-03 02:14:00,
2013-01-02 21:19:00,20.8,11.6,29.97,NW,315,0.5,0.5,67,0.00,CLR,FEW,0.03,WeatherDisplay:10.37,2013-01-03 02:19:00,
2013-01-02 21:24:00,20.8,11.6,29.97,NW,315,0.5,0.5,67,0.00,CLR,FEW,0.03,WeatherDisplay:10.37,2013-01-03 02:24:00,
2013-01-02 21:29:00,20.8,11.9,29.98,NW,315,0.5,0.5,68,0.00,CLR,FEW,0.03,WeatherDisplay:10.37,2013-01-03 02:29:00,
2013-01-02 21:34:00,21.0,12.1,29.99,NW,315,0.5,0.5,68,0.00,CLR,FEW,0.03,WeatherDisplay:10.37,2013-01-03 02:34:00,
2013-01-02 21:39:00,20.8,11.9,29.99,NW,315,0.5,0.5,68,0.00,CLR,FEW,0.03,WeatherDisplay:10.37,2013-01-03 02:39:00,
2013-01-02 21:44:00,20.8,11.9,29.98,NW,315,0.5,0.5,68,0.00,CLR,FEW,0.03,WeatherDisplay:10.37,2013-01-03 02:44:00,
2013-01-02 21:49:00,20.8,12.3,29.98,NW,315,0.5,0.5,69,0.00,CLR,FEW,0.03,WeatherDisplay:10.37,2013-01-03 02:49:00,
2013-01-02 21:54:00,20.8,12.3,29.99,NW,315,0.5,0.5,69,0.00,CLR,FEW,0.03,WeatherDisplay:10.37,2013-01-03 02:54:00,
2013-01-02 21:59:00,20.8,12.3,29.99,NW,315,0.5,0.5,69,0.00,CLR,FEW,0.03,WeatherDisplay:10.37,2013-01-03 02:59:00,
2013-01-02 22:04:00,21.0,12.4,29.99,NW,315,0.5,0.5,69,0.00,CLR,FEW,0.03,WeatherDisplay:10.37,2013-01-03 03:04:00,
2013-01-02 22:09:00,21.0,12.4,29.99,NW,315,0.5,0.5,69,0.00,CLR,FEW,0.03,WeatherDisplay:10.37,2013-01-03 03:09:00,
2013-01-02 22:14:00,21.2,12.6,30.00,NW,315,0.5,0.5,69,0.00,CLR,FEW,0.03,WeatherDisplay:10.37,2013-01-03 03:14:00,
2013-01-02 22:19:00,21.2,12.6,30.00,NW,315,0.5,0.5,69,0.00,CLR,FEW,0.03,WeatherDisplay:10.37,2013-01-03 03:19:00,
2013-01-02 22:24:00,21.2,12.3,30.00,NW,315,0.5,0.5,68,0.00,CLR,FEW,0.03,WeatherDisplay:10.37,2013-01-03 03:24:00,
2013-01-02 22:30:00,21.2,12.3,30.00,NW,315,0.5,0.5,68,0.00,CLR,FEW,0.03,WeatherDisplay:10.37,2013-01-03 03:30:00,
2013-01-02 22:35:00,21.2,12.3,30.00,NW,315,0.5,0.5,68,0.00,CLR,FEW,0.03,WeatherDisplay:10.37,2013-01-03 03:35:00,
2013-01-02 22:42:00,21.4,11.4,30.00,NW,315,0.5,0.5,65,0.00,CLR,FEW,0.03,WeatherDisplay:10.37,2013-01-03 03:42:00,
2013-01-02 22:47:00,21.4,11.1,30.00,NW,315,0.5,0.5,64,0.00,CLR,FEW,0.03,WeatherDisplay:10.37,2013-01-03 03:47:00,
2013-01-02 22:52:00,21.2,10.2,30.00,NW,315,0.5,0.5,62,0.00,CLR,FEW,0.03,WeatherDisplay:10.37,2013-01-03 03:52:00,
2013-01-02 22:57:00,21.2,9.5,30.00,NW,315,0.5,0.5,60,0.00,CLR,FEW,0.03,WeatherDisplay:10.37,2013-01-03 03:57:00,
2013-01-02 23:02:00,21.0,9.3,30.00,NW,315,0.5,0.5,60,0.00,CLR,FEW,0.03,WeatherDisplay:10.37,2013-01-03 04:02:00,
2013-01-02 23:07:00,20.8,8.7,30.00,NW,315,0.5,0.5,59,0.00,CLR,FEW,0.03,WeatherDisplay:10.37,2013-01-03 04:07:00,
2013-01-02 23:12:00,20.8,9.1,30.00,NW,315,0.5,0.5,60,0.00,CLR,FEW,0.03,WeatherDisplay:10.37,2013-01-03 04:12:00,
2013-01-02 23:17:00,20.7,8.2,30.00,NW,315,0.5,0.5,58,0.00,CLR,FEW,0.03,WeatherDisplay:10.37,2013-01-03 04:17:00,
2013-01-02 23:22:00,20.5,7.6,30.00,NW,315,0.5,0.5,57,0.00,CLR,FEW,0.03,WeatherDisplay:10.37,2013-01-03 04:22:00,
2013-01-02 23:27:00,20.5,8.0,30.00,NW,315,0.5,0.5,58,0.00,CLR,FEW,0.03,WeatherDisplay:10.37,2013-01-03 04:27:00,
2013-01-02 23:32:00,20.5,8.0,30.00,NW,315,0.5,0.5,58,0.00,CLR,FEW,0.03,WeatherDisplay:10.37,2013-01-03 04:32:00,
2013-01-02 23:37:00,20.3,7.9,30.00,NW,315,0.5,0.5,58,0.00,CLR,FEW,0.03,WeatherDisplay:10.37,2013-01-03 04:37:00,
2013-01-02 23:42:00,20.1,7.7,30.01,NW,315,0.5,0.5,58,0.00,CLR,FEW,0.03,WeatherDisplay:10.37,2013-01-03 04:42:00,
2013-01-02 23:47:00,20.1,8.1,30.01,NW,315,0.5,0.5,59,0.00,CLR,FEW,0.03,WeatherDisplay:10.37,2013-01-03 04:47:00,
2013-01-02 23:52:00,20.1,8.4,30.00,NW,315,0.5,0.5,60,0.00,CLR,FEW,0.03,WeatherDisplay:10.37,2013-01-03 04:52:00,
2013-01-02 23:57:00,20.1,8.1,30.01,NW,315,0.5,0.5,59,0.00,CLR,FEW,0.03,WeatherDisplay:10.37,2013-01-03 04:57:00,